sensor_id;sensor_type;location;lat;lon;timestamp;P1;durP1;ratioP1;P2;durP2;ratioP2
60641;SDS011;46837;52.446;-1.930;2023-12-07T00:00:07;21.14;;;9.72;;
60641;SDS011;46837;52.446;-1.930;2023-12-07T00:01:07;14.54;;;8.44;;
60641;SDS011;46837;52.446;-1.930;2023-12-07T00:02:07;18.28;;;8.62;;
60641;SDS011;46837;52.446;-1.930;2023-12-07T00:03:09;17.08;;;8.18;;
60641;SDS011;46837;52.446;-1.930;2023-12-07T00:04:07;16.26;;;8.42;;
60641;SDS011;46837;52.446;-1.930;2023-12-07T00:05:07;19.06;;;8.30;;
60641;SDS011;46837;52.446;-1.930;2023-12-07T00:06:07;18.52;;;8.38;;
60641;SDS011;46837;52.446;-1.930;2023-12-07T00:07:07;16.08;;;7.66;;
60641;SDS011;46837;52.446;-1.930;2023-12-07T00:08:09;22.34;;;8.62;;
60641;SDS011;46837;52.446;-1.930;2023-12-07T00:09:07;19.94;;;9.34;;
60641;SDS011;46837;52.446;-1.930;2023-12-07T00:10:07;21.84;;;8.90;;
60641;SDS011;46837;52.446;-1.930;2023-12-07T00:11:07;16.30;;;8.74;;
60641;SDS011;46837;52.446;-1.930;2023-12-07T00:12:07;13.98;;;8.24;;
60641;SDS011;46837;52.446;-1.930;2023-12-07T00:13:07;13.24;;;8.30;;
60641;SDS011;46837;52.446;-1.930;2023-12-07T00:14:07;15.50;;;8.02;;
60641;SDS011;46837;52.446;-1.930;2023-12-07T00:15:07;19.04;;;7.98;;
60641;SDS011;46837;52.446;-1.930;2023-12-07T00:16:07;17.70;;;8.78;;
60641;SDS011;46837;52.446;-1.930;2023-12-07T00:17:07;16.80;;;8.04;;
60641;SDS011;46837;52.446;-1.930;2023-12-07T00:18:07;13.48;;;8.02;;
60641;SDS011;46837;52.446;-1.930;2023-12-07T00:19:07;16.48;;;8.62;;
60641;SDS011;46837;52.446;-1.930;2023-12-07T00:20:07;16.66;;;7.76;;
60641;SDS011;46837;52.446;-1.930;2023-12-07T00:21:10;14.22;;;8.58;;
60641;SDS011;46837;52.446;-1.930;2023-12-07T00:22:07;12.48;;;7.50;;
60641;SDS011;46837;52.446;-1.930;2023-12-07T00:23:07;12.36;;;7.56;;
60641;SDS011;46837;52.446;-1.930;2023-12-07T00:24:07;13.22;;;8.00;;
60641;SDS011;46837;52.446;-1.930;2023-12-07T00:25:07;12.50;;;7.10;;
60641;SDS011;46837;52.446;-1.930;2023-12-07T00:26:07;15.62;;;7.22;;
60641;SDS011;46837;52.446;-1.930;2023-12-07T00:27:07;17.32;;;7.42;;
60641;SDS011;46837;52.446;-1.930;2023-12-07T00:28:07;14.72;;;8.08;;
60641;SDS011;46837;52.446;-1.930;2023-12-07T00:29:07;16.62;;;7.46;;
60641;SDS011;46837;52.446;-1.930;2023-12-07T00:30:07;17.06;;;7.18;;
60641;SDS011;46837;52.446;-1.930;2023-12-07T00:31:07;12.68;;;6.90;;
60641;SDS011;46837;52.446;-1.930;2023-12-07T00:32:07;13.34;;;7.38;;
60641;SDS011;46837;52.446;-1.930;2023-12-07T00:33:07;14.70;;;7.54;;
60641;SDS011;46837;52.446;-1.930;2023-12-07T00:34:07;15.08;;;8.60;;
60641;SDS011;46837;52.446;-1.930;2023-12-07T00:35:07;14.14;;;6.94;;
60641;SDS011;46837;52.446;-1.930;2023-12-07T00:36:07;20.66;;;8.02;;
60641;SDS011;46837;52.446;-1.930;2023-12-07T00:37:07;11.62;;;7.24;;
60641;SDS011;46837;52.446;-1.930;2023-12-07T00:38:09;24.54;;;7.98;;
60641;SDS011;46837;52.446;-1.930;2023-12-07T00:39:07;16.92;;;8.00;;
60641;SDS011;46837;52.446;-1.930;2023-12-07T00:40:07;14.48;;;8.02;;
60641;SDS011;46837;52.446;-1.930;2023-12-07T00:41:07;12.72;;;7.52;;
60641;SDS011;46837;52.446;-1.930;2023-12-07T00:42:07;13.52;;;7.30;;
60641;SDS011;46837;52.446;-1.930;2023-12-07T00:43:07;21.98;;;7.90;;
60641;SDS011;46837;52.446;-1.930;2023-12-07T00:44:07;9.74;;;7.30;;
60641;SDS011;46837;52.446;-1.930;2023-12-07T00:45:07;17.90;;;8.02;;
60641;SDS011;46837;52.446;-1.930;2023-12-07T00:46:07;19.40;;;7.68;;
60641;SDS011;46837;52.446;-1.930;2023-12-07T00:47:07;12.88;;;6.84;;
60641;SDS011;46837;52.446;-1.930;2023-12-07T00:48:07;14.82;;;7.30;;
60641;SDS011;46837;52.446;-1.930;2023-12-07T00:49:07;15.92;;;8.40;;
60641;SDS011;46837;52.446;-1.930;2023-12-07T00:50:07;12.12;;;7.12;;
60641;SDS011;46837;52.446;-1.930;2023-12-07T00:51:07;15.28;;;7.84;;
60641;SDS011;46837;52.446;-1.930;2023-12-07T00:52:07;15.62;;;6.70;;
60641;SDS011;46837;52.446;-1.930;2023-12-07T00:53:07;14.28;;;7.34;;
60641;SDS011;46837;52.446;-1.930;2023-12-07T00:54:07;15.88;;;7.38;;
60641;SDS011;46837;52.446;-1.930;2023-12-07T00:55:07;14.48;;;8.52;;
60641;SDS011;46837;52.446;-1.930;2023-12-07T00:56:07;12.34;;;7.16;;
60641;SDS011;46837;52.446;-1.930;2023-12-07T00:57:07;11.34;;;7.28;;
60641;SDS011;46837;52.446;-1.930;2023-12-07T00:58:07;32.52;;;8.32;;
60641;SDS011;46837;52.446;-1.930;2023-12-07T00:59:07;16.00;;;7.48;;
60641;SDS011;46837;52.446;-1.930;2023-12-07T01:00:07;20.42;;;7.94;;
60641;SDS011;46837;52.446;-1.930;2023-12-07T01:01:07;17.88;;;7.50;;
60641;SDS011;46837;52.446;-1.930;2023-12-07T01:02:07;14.96;;;6.98;;
60641;SDS011;46837;52.446;-1.930;2023-12-07T01:03:07;15.68;;;7.00;;
60641;SDS011;46837;52.446;-1.930;2023-12-07T01:04:07;13.62;;;7.10;;
60641;SDS011;46837;52.446;-1.930;2023-12-07T01:05:07;11.42;;;6.44;;
60641;SDS011;46837;52.446;-1.930;2023-12-07T01:06:07;17.92;;;7.04;;
60641;SDS011;46837;52.446;-1.930;2023-12-07T01:07:07;15.82;;;7.18;;
60641;SDS011;46837;52.446;-1.930;2023-12-07T01:08:07;15.80;;;7.30;;
60641;SDS011;46837;52.446;-1.930;2023-12-07T01:09:07;20.94;;;7.06;;
60641;SDS011;46837;52.446;-1.930;2023-12-07T01:10:07;16.46;;;7.36;;
60641;SDS011;46837;52.446;-1.930;2023-12-07T01:11:07;12.08;;;6.04;;
60641;SDS011;46837;52.446;-1.930;2023-12-07T01:12:07;12.68;;;6.12;;
60641;SDS011;46837;52.446;-1.930;2023-12-07T01:13:07;8.70;;;6.64;;
60641;SDS011;46837;52.446;-1.930;2023-12-07T01:14:07;12.34;;;6.02;;
60641;SDS011;46837;52.446;-1.930;2023-12-07T01:15:07;14.30;;;6.48;;
60641;SDS011;46837;52.446;-1.930;2023-12-07T01:16:07;20.52;;;7.32;;
60641;SDS011;46837;52.446;-1.930;2023-12-07T01:17:07;11.32;;;6.54;;
60641;SDS011;46837;52.446;-1.930;2023-12-07T01:18:07;9.62;;;5.30;;
60641;SDS011;46837;52.446;-1.930;2023-12-07T01:19:07;9.80;;;5.78;;
60641;SDS011;46837;52.446;-1.930;2023-12-07T01:20:08;16.00;;;8.02;;
60641;SDS011;46837;52.446;-1.930;2023-12-07T01:21:07;13.98;;;5.62;;
60641;SDS011;46837;52.446;-1.930;2023-12-07T01:22:07;9.70;;;5.80;;
60641;SDS011;46837;52.446;-1.930;2023-12-07T01:23:07;20.36;;;6.34;;
60641;SDS011;46837;52.446;-1.930;2023-12-07T01:24:07;15.64;;;6.36;;
60641;SDS011;46837;52.446;-1.930;2023-12-07T01:25:07;12.78;;;6.56;;
60641;SDS011;46837;52.446;-1.930;2023-12-07T01:26:07;17.60;;;6.06;;
60641;SDS011;46837;52.446;-1.930;2023-12-07T01:27:07;13.32;;;5.82;;
60641;SDS011;46837;52.446;-1.930;2023-12-07T01:28:07;14.50;;;7.62;;
60641;SDS011;46837;52.446;-1.930;2023-12-07T01:29:07;20.30;;;7.12;;
60641;SDS011;46837;52.446;-1.930;2023-12-07T01:30:07;18.30;;;7.04;;
60641;SDS011;46837;52.446;-1.930;2023-12-07T01:31:07;11.44;;;5.62;;
60641;SDS011;46837;52.446;-1.930;2023-12-07T01:32:07;11.94;;;5.50;;
60641;SDS011;46837;52.446;-1.930;2023-12-07T01:33:07;9.74;;;5.80;;
60641;SDS011;46837;52.446;-1.930;2023-12-07T01:34:07;12.00;;;5.40;;
60641;SDS011;46837;52.446;-1.930;2023-12-07T01:35:07;10.92;;;5.66;;
60641;SDS011;46837;52.446;-1.930;2023-12-07T01:36:07;17.06;;;5.80;;
60641;SDS011;46837;52.446;-1.930;2023-12-07T01:37:07;10.74;;;5.92;;
60641;SDS011;46837;52.446;-1.930;2023-12-07T01:38:07;10.72;;;5.02;;
60641;SDS011;46837;52.446;-1.930;2023-12-07T01:39:07;15.62;;;6.58;;
60641;SDS011;46837;52.446;-1.930;2023-12-07T01:40:11;15.80;;;6.88;;
60641;SDS011;46837;52.446;-1.930;2023-12-07T01:41:07;11.76;;;6.38;;
60641;SDS011;46837;52.446;-1.930;2023-12-07T01:42:07;12.88;;;5.76;;
60641;SDS011;46837;52.446;-1.930;2023-12-07T01:43:07;10.76;;;6.02;;
60641;SDS011;46837;52.446;-1.930;2023-12-07T01:44:07;11.52;;;5.42;;
60641;SDS011;46837;52.446;-1.930;2023-12-07T01:45:07;14.98;;;6.24;;
60641;SDS011;46837;52.446;-1.930;2023-12-07T01:46:07;16.28;;;6.06;;
60641;SDS011;46837;52.446;-1.930;2023-12-07T01:47:07;14.44;;;5.98;;
60641;SDS011;46837;52.446;-1.930;2023-12-07T01:48:07;14.46;;;6.36;;
60641;SDS011;46837;52.446;-1.930;2023-12-07T01:49:07;18.24;;;5.74;;
60641;SDS011;46837;52.446;-1.930;2023-12-07T01:50:07;20.10;;;5.80;;
60641;SDS011;46837;52.446;-1.930;2023-12-07T01:51:07;13.56;;;5.28;;
60641;SDS011;46837;52.446;-1.930;2023-12-07T01:52:07;12.06;;;6.02;;
60641;SDS011;46837;52.446;-1.930;2023-12-07T01:53:07;13.12;;;5.14;;
60641;SDS011;46837;52.446;-1.930;2023-12-07T01:54:07;15.90;;;5.90;;
60641;SDS011;46837;52.446;-1.930;2023-12-07T01:55:07;19.96;;;6.56;;
60641;SDS011;46837;52.446;-1.930;2023-12-07T01:56:07;9.74;;;5.38;;
60641;SDS011;46837;52.446;-1.930;2023-12-07T01:57:07;15.60;;;6.16;;
60641;SDS011;46837;52.446;-1.930;2023-12-07T01:58:07;14.38;;;6.10;;
60641;SDS011;46837;52.446;-1.930;2023-12-07T01:59:07;13.06;;;6.24;;
60641;SDS011;46837;52.446;-1.930;2023-12-07T02:00:07;9.70;;;6.08;;
60641;SDS011;46837;52.446;-1.930;2023-12-07T02:01:07;14.42;;;6.50;;
60641;SDS011;46837;52.446;-1.930;2023-12-07T02:02:07;10.92;;;5.58;;
60641;SDS011;46837;52.446;-1.930;2023-12-07T02:03:07;11.00;;;6.06;;
60641;SDS011;46837;52.446;-1.930;2023-12-07T02:04:07;11.28;;;7.40;;
60641;SDS011;46837;52.446;-1.930;2023-12-07T02:05:07;13.84;;;6.44;;
60641;SDS011;46837;52.446;-1.930;2023-12-07T02:06:07;8.76;;;6.12;;
60641;SDS011;46837;52.446;-1.930;2023-12-07T02:07:07;15.94;;;6.64;;
60641;SDS011;46837;52.446;-1.930;2023-12-07T02:08:07;15.58;;;6.34;;
60641;SDS011;46837;52.446;-1.930;2023-12-07T02:09:07;8.30;;;5.94;;
60641;SDS011;46837;52.446;-1.930;2023-12-07T02:10:07;8.92;;;5.20;;
60641;SDS011;46837;52.446;-1.930;2023-12-07T02:11:07;12.60;;;5.76;;
60641;SDS011;46837;52.446;-1.930;2023-12-07T02:12:07;11.10;;;6.10;;
60641;SDS011;46837;52.446;-1.930;2023-12-07T02:13:07;14.48;;;5.44;;
60641;SDS011;46837;52.446;-1.930;2023-12-07T02:14:07;22.02;;;5.52;;
60641;SDS011;46837;52.446;-1.930;2023-12-07T02:15:07;16.80;;;6.80;;
60641;SDS011;46837;52.446;-1.930;2023-12-07T02:16:27;15.22;;;6.68;;
60641;SDS011;46837;52.446;-1.930;2023-12-07T02:17:09;16.32;;;6.22;;
60641;SDS011;46837;52.446;-1.930;2023-12-07T02:18:50;12.10;;;5.74;;
60641;SDS011;46837;52.446;-1.930;2023-12-07T02:19:12;20.94;;;6.38;;
60641;SDS011;46837;52.446;-1.930;2023-12-07T02:22:09;12.94;;;6.62;;
60641;SDS011;46837;52.446;-1.930;2023-12-07T02:23:07;16.50;;;6.54;;
60641;SDS011;46837;52.446;-1.930;2023-12-07T02:24:07;13.24;;;6.70;;
60641;SDS011;46837;52.446;-1.930;2023-12-07T02:25:07;13.18;;;6.20;;
60641;SDS011;46837;52.446;-1.930;2023-12-07T02:26:07;16.00;;;6.18;;
60641;SDS011;46837;52.446;-1.930;2023-12-07T02:27:07;12.24;;;5.68;;
60641;SDS011;46837;52.446;-1.930;2023-12-07T02:28:07;8.28;;;5.58;;
60641;SDS011;46837;52.446;-1.930;2023-12-07T02:29:07;8.64;;;5.26;;
60641;SDS011;46837;52.446;-1.930;2023-12-07T02:30:08;11.40;;;6.32;;
60641;SDS011;46837;52.446;-1.930;2023-12-07T02:31:07;9.18;;;5.74;;
60641;SDS011;46837;52.446;-1.930;2023-12-07T02:32:07;32.70;;;10.20;;
60641;SDS011;46837;52.446;-1.930;2023-12-07T02:33:07;14.34;;;5.50;;
60641;SDS011;46837;52.446;-1.930;2023-12-07T02:34:07;17.40;;;6.20;;
60641;SDS011;46837;52.446;-1.930;2023-12-07T02:35:07;10.06;;;5.96;;
60641;SDS011;46837;52.446;-1.930;2023-12-07T02:36:07;10.42;;;6.16;;
60641;SDS011;46837;52.446;-1.930;2023-12-07T02:37:07;9.46;;;6.00;;
60641;SDS011;46837;52.446;-1.930;2023-12-07T02:38:07;9.54;;;5.46;;
60641;SDS011;46837;52.446;-1.930;2023-12-07T02:39:07;13.20;;;6.18;;
60641;SDS011;46837;52.446;-1.930;2023-12-07T02:40:07;16.38;;;6.40;;
60641;SDS011;46837;52.446;-1.930;2023-12-07T02:41:07;13.56;;;5.92;;
60641;SDS011;46837;52.446;-1.930;2023-12-07T02:42:07;14.74;;;5.80;;
60641;SDS011;46837;52.446;-1.930;2023-12-07T02:43:07;18.46;;;6.68;;
60641;SDS011;46837;52.446;-1.930;2023-12-07T02:44:07;14.70;;;5.94;;
60641;SDS011;46837;52.446;-1.930;2023-12-07T02:45:07;15.52;;;5.76;;
60641;SDS011;46837;52.446;-1.930;2023-12-07T02:46:07;12.34;;;7.20;;
60641;SDS011;46837;52.446;-1.930;2023-12-07T02:47:07;12.34;;;5.50;;
60641;SDS011;46837;52.446;-1.930;2023-12-07T02:48:07;11.18;;;5.82;;
60641;SDS011;46837;52.446;-1.930;2023-12-07T02:49:07;20.08;;;6.36;;
60641;SDS011;46837;52.446;-1.930;2023-12-07T02:50:07;11.08;;;5.36;;
60641;SDS011;46837;52.446;-1.930;2023-12-07T02:51:07;14.56;;;6.86;;
60641;SDS011;46837;52.446;-1.930;2023-12-07T02:52:07;13.92;;;5.98;;
60641;SDS011;46837;52.446;-1.930;2023-12-07T02:53:07;13.92;;;5.84;;
60641;SDS011;46837;52.446;-1.930;2023-12-07T02:54:07;14.88;;;8.36;;
60641;SDS011;46837;52.446;-1.930;2023-12-07T02:55:07;16.38;;;6.78;;
60641;SDS011;46837;52.446;-1.930;2023-12-07T02:56:07;15.48;;;6.80;;
60641;SDS011;46837;52.446;-1.930;2023-12-07T02:57:07;17.62;;;6.68;;
60641;SDS011;46837;52.446;-1.930;2023-12-07T02:58:07;10.02;;;5.62;;
60641;SDS011;46837;52.446;-1.930;2023-12-07T02:59:07;12.32;;;6.22;;
60641;SDS011;46837;52.446;-1.930;2023-12-07T03:00:08;19.08;;;7.00;;
60641;SDS011;46837;52.446;-1.930;2023-12-07T03:01:07;14.90;;;6.58;;
60641;SDS011;46837;52.446;-1.930;2023-12-07T03:02:07;13.82;;;6.84;;
60641;SDS011;46837;52.446;-1.930;2023-12-07T03:03:07;18.34;;;6.86;;
60641;SDS011;46837;52.446;-1.930;2023-12-07T03:04:07;17.90;;;6.30;;
60641;SDS011;46837;52.446;-1.930;2023-12-07T03:05:07;11.40;;;5.90;;
60641;SDS011;46837;52.446;-1.930;2023-12-07T03:06:07;9.40;;;5.74;;
60641;SDS011;46837;52.446;-1.930;2023-12-07T03:07:07;8.32;;;5.70;;
60641;SDS011;46837;52.446;-1.930;2023-12-07T03:08:07;13.34;;;6.34;;
60641;SDS011;46837;52.446;-1.930;2023-12-07T03:09:07;11.26;;;5.76;;
60641;SDS011;46837;52.446;-1.930;2023-12-07T03:10:07;13.20;;;6.78;;
60641;SDS011;46837;52.446;-1.930;2023-12-07T03:11:07;11.46;;;6.50;;
60641;SDS011;46837;52.446;-1.930;2023-12-07T03:12:07;8.46;;;5.60;;
60641;SDS011;46837;52.446;-1.930;2023-12-07T03:13:07;13.82;;;6.50;;
60641;SDS011;46837;52.446;-1.930;2023-12-07T03:14:07;10.56;;;5.32;;
60641;SDS011;46837;52.446;-1.930;2023-12-07T03:15:07;18.84;;;6.32;;
60641;SDS011;46837;52.446;-1.930;2023-12-07T03:16:07;11.90;;;5.62;;
60641;SDS011;46837;52.446;-1.930;2023-12-07T03:17:07;17.24;;;7.02;;
60641;SDS011;46837;52.446;-1.930;2023-12-07T03:18:07;17.66;;;6.04;;
60641;SDS011;46837;52.446;-1.930;2023-12-07T03:19:07;11.26;;;5.36;;
60641;SDS011;46837;52.446;-1.930;2023-12-07T03:20:07;13.58;;;5.64;;
60641;SDS011;46837;52.446;-1.930;2023-12-07T03:21:07;15.02;;;5.26;;
60641;SDS011;46837;52.446;-1.930;2023-12-07T03:22:07;15.56;;;5.06;;
60641;SDS011;46837;52.446;-1.930;2023-12-07T03:23:07;17.26;;;5.76;;
60641;SDS011;46837;52.446;-1.930;2023-12-07T03:24:07;23.18;;;8.20;;
60641;SDS011;46837;52.446;-1.930;2023-12-07T03:25:07;10.08;;;4.92;;
60641;SDS011;46837;52.446;-1.930;2023-12-07T03:26:07;19.04;;;5.40;;
60641;SDS011;46837;52.446;-1.930;2023-12-07T03:27:07;8.86;;;5.18;;
60641;SDS011;46837;52.446;-1.930;2023-12-07T03:28:07;11.46;;;4.66;;
60641;SDS011;46837;52.446;-1.930;2023-12-07T03:29:07;11.12;;;5.28;;
60641;SDS011;46837;52.446;-1.930;2023-12-07T03:30:07;15.10;;;4.86;;
60641;SDS011;46837;52.446;-1.930;2023-12-07T03:31:07;14.62;;;6.04;;
60641;SDS011;46837;52.446;-1.930;2023-12-07T03:32:07;8.74;;;4.76;;
60641;SDS011;46837;52.446;-1.930;2023-12-07T03:33:07;13.82;;;6.76;;
60641;SDS011;46837;52.446;-1.930;2023-12-07T03:34:07;13.32;;;5.48;;
60641;SDS011;46837;52.446;-1.930;2023-12-07T03:35:07;17.62;;;5.94;;
60641;SDS011;46837;52.446;-1.930;2023-12-07T03:36:07;13.56;;;4.56;;
60641;SDS011;46837;52.446;-1.930;2023-12-07T03:37:07;13.22;;;5.56;;
60641;SDS011;46837;52.446;-1.930;2023-12-07T03:38:07;13.16;;;5.64;;
60641;SDS011;46837;52.446;-1.930;2023-12-07T03:39:07;10.02;;;5.00;;
60641;SDS011;46837;52.446;-1.930;2023-12-07T03:40:07;11.42;;;4.96;;
60641;SDS011;46837;52.446;-1.930;2023-12-07T03:41:07;9.64;;;5.12;;
60641;SDS011;46837;52.446;-1.930;2023-12-07T03:42:07;12.10;;;4.90;;
60641;SDS011;46837;52.446;-1.930;2023-12-07T03:43:07;10.30;;;4.52;;
60641;SDS011;46837;52.446;-1.930;2023-12-07T03:44:07;12.92;;;4.74;;
60641;SDS011;46837;52.446;-1.930;2023-12-07T03:45:07;16.12;;;4.66;;
60641;SDS011;46837;52.446;-1.930;2023-12-07T03:46:07;8.84;;;4.80;;
60641;SDS011;46837;52.446;-1.930;2023-12-07T03:47:07;14.20;;;5.12;;
60641;SDS011;46837;52.446;-1.930;2023-12-07T03:48:07;25.86;;;5.90;;
60641;SDS011;46837;52.446;-1.930;2023-12-07T03:49:07;8.44;;;5.30;;
60641;SDS011;46837;52.446;-1.930;2023-12-07T03:50:07;10.28;;;4.80;;
60641;SDS011;46837;52.446;-1.930;2023-12-07T03:51:07;13.10;;;5.62;;
60641;SDS011;46837;52.446;-1.930;2023-12-07T03:52:07;8.88;;;4.76;;
60641;SDS011;46837;52.446;-1.930;2023-12-07T03:53:07;9.82;;;4.46;;
60641;SDS011;46837;52.446;-1.930;2023-12-07T03:54:07;15.44;;;5.52;;
60641;SDS011;46837;52.446;-1.930;2023-12-07T03:55:07;14.36;;;5.28;;
60641;SDS011;46837;52.446;-1.930;2023-12-07T03:56:07;10.12;;;4.40;;
60641;SDS011;46837;52.446;-1.930;2023-12-07T03:57:07;11.38;;;4.88;;
60641;SDS011;46837;52.446;-1.930;2023-12-07T03:58:07;10.04;;;4.44;;
60641;SDS011;46837;52.446;-1.930;2023-12-07T03:59:07;10.74;;;4.56;;
60641;SDS011;46837;52.446;-1.930;2023-12-07T04:00:10;11.06;;;4.94;;
60641;SDS011;46837;52.446;-1.930;2023-12-07T04:01:07;17.04;;;6.04;;
60641;SDS011;46837;52.446;-1.930;2023-12-07T04:02:07;12.78;;;5.06;;
60641;SDS011;46837;52.446;-1.930;2023-12-07T04:03:07;5.70;;;3.72;;
60641;SDS011;46837;52.446;-1.930;2023-12-07T04:04:07;10.60;;;3.98;;
60641;SDS011;46837;52.446;-1.930;2023-12-07T04:05:07;13.04;;;5.20;;
60641;SDS011;46837;52.446;-1.930;2023-12-07T04:06:07;13.66;;;4.38;;
60641;SDS011;46837;52.446;-1.930;2023-12-07T04:07:07;11.76;;;4.90;;
60641;SDS011;46837;52.446;-1.930;2023-12-07T04:08:07;10.28;;;4.18;;
60641;SDS011;46837;52.446;-1.930;2023-12-07T04:09:07;8.80;;;4.32;;
60641;SDS011;46837;52.446;-1.930;2023-12-07T04:10:07;9.62;;;3.64;;
60641;SDS011;46837;52.446;-1.930;2023-12-07T04:11:07;12.72;;;4.28;;
60641;SDS011;46837;52.446;-1.930;2023-12-07T04:12:07;7.40;;;4.48;;
60641;SDS011;46837;52.446;-1.930;2023-12-07T04:13:07;13.14;;;4.26;;
60641;SDS011;46837;52.446;-1.930;2023-12-07T04:14:07;9.68;;;4.26;;
60641;SDS011;46837;52.446;-1.930;2023-12-07T04:15:07;17.30;;;4.04;;
60641;SDS011;46837;52.446;-1.930;2023-12-07T04:16:07;10.02;;;4.70;;
60641;SDS011;46837;52.446;-1.930;2023-12-07T04:17:07;10.56;;;4.48;;
60641;SDS011;46837;52.446;-1.930;2023-12-07T04:18:07;14.10;;;4.70;;
60641;SDS011;46837;52.446;-1.930;2023-12-07T04:19:07;8.08;;;3.94;;
60641;SDS011;46837;52.446;-1.930;2023-12-07T04:20:07;11.88;;;3.96;;
60641;SDS011;46837;52.446;-1.930;2023-12-07T04:21:08;13.94;;;4.00;;
60641;SDS011;46837;52.446;-1.930;2023-12-07T04:22:07;8.68;;;4.30;;
60641;SDS011;46837;52.446;-1.930;2023-12-07T04:23:07;14.64;;;4.66;;
60641;SDS011;46837;52.446;-1.930;2023-12-07T04:24:07;13.92;;;4.70;;
60641;SDS011;46837;52.446;-1.930;2023-12-07T04:25:07;16.68;;;4.60;;
60641;SDS011;46837;52.446;-1.930;2023-12-07T04:26:07;10.32;;;4.26;;
60641;SDS011;46837;52.446;-1.930;2023-12-07T04:27:07;8.02;;;4.60;;
60641;SDS011;46837;52.446;-1.930;2023-12-07T04:28:07;8.44;;;4.28;;
60641;SDS011;46837;52.446;-1.930;2023-12-07T04:29:07;8.50;;;4.86;;
60641;SDS011;46837;52.446;-1.930;2023-12-07T04:30:07;7.46;;;4.26;;
60641;SDS011;46837;52.446;-1.930;2023-12-07T04:31:07;12.86;;;4.40;;
60641;SDS011;46837;52.446;-1.930;2023-12-07T04:32:07;10.20;;;4.64;;
60641;SDS011;46837;52.446;-1.930;2023-12-07T04:33:07;12.78;;;5.32;;
60641;SDS011;46837;52.446;-1.930;2023-12-07T04:34:07;7.64;;;4.36;;
60641;SDS011;46837;52.446;-1.930;2023-12-07T04:35:07;5.86;;;4.08;;
60641;SDS011;46837;52.446;-1.930;2023-12-07T04:36:07;6.80;;;5.10;;
60641;SDS011;46837;52.446;-1.930;2023-12-07T04:37:07;12.08;;;4.22;;
60641;SDS011;46837;52.446;-1.930;2023-12-07T04:38:07;9.38;;;4.18;;
60641;SDS011;46837;52.446;-1.930;2023-12-07T04:39:07;8.96;;;3.96;;
60641;SDS011;46837;52.446;-1.930;2023-12-07T04:40:07;12.78;;;4.36;;
60641;SDS011;46837;52.446;-1.930;2023-12-07T04:41:07;10.78;;;5.02;;
60641;SDS011;46837;52.446;-1.930;2023-12-07T04:42:07;11.90;;;4.32;;
60641;SDS011;46837;52.446;-1.930;2023-12-07T04:43:07;10.22;;;4.66;;
60641;SDS011;46837;52.446;-1.930;2023-12-07T04:44:07;7.48;;;4.34;;
60641;SDS011;46837;52.446;-1.930;2023-12-07T04:45:07;11.30;;;4.54;;
60641;SDS011;46837;52.446;-1.930;2023-12-07T04:46:07;11.02;;;4.56;;
60641;SDS011;46837;52.446;-1.930;2023-12-07T04:47:07;12.54;;;4.72;;
60641;SDS011;46837;52.446;-1.930;2023-12-07T04:48:07;10.54;;;4.36;;
60641;SDS011;46837;52.446;-1.930;2023-12-07T04:49:07;12.26;;;4.48;;
60641;SDS011;46837;52.446;-1.930;2023-12-07T04:50:07;4.88;;;3.64;;
60641;SDS011;46837;52.446;-1.930;2023-12-07T04:51:07;10.66;;;4.82;;
60641;SDS011;46837;52.446;-1.930;2023-12-07T04:52:07;18.52;;;4.92;;
60641;SDS011;46837;52.446;-1.930;2023-12-07T04:53:07;12.50;;;4.86;;
60641;SDS011;46837;52.446;-1.930;2023-12-07T04:54:07;14.44;;;5.10;;
60641;SDS011;46837;52.446;-1.930;2023-12-07T04:55:07;12.38;;;4.56;;
60641;SDS011;46837;52.446;-1.930;2023-12-07T04:56:07;11.72;;;4.00;;
60641;SDS011;46837;52.446;-1.930;2023-12-07T04:57:07;17.58;;;4.54;;
60641;SDS011;46837;52.446;-1.930;2023-12-07T04:58:07;11.52;;;4.26;;
60641;SDS011;46837;52.446;-1.930;2023-12-07T04:59:07;8.02;;;3.76;;
60641;SDS011;46837;52.446;-1.930;2023-12-07T05:00:10;9.96;;;4.20;;
60641;SDS011;46837;52.446;-1.930;2023-12-07T05:01:07;8.42;;;4.04;;
60641;SDS011;46837;52.446;-1.930;2023-12-07T05:02:07;13.40;;;5.68;;
60641;SDS011;46837;52.446;-1.930;2023-12-07T05:03:07;10.94;;;5.30;;
60641;SDS011;46837;52.446;-1.930;2023-12-07T05:04:07;10.62;;;4.18;;
60641;SDS011;46837;52.446;-1.930;2023-12-07T05:05:07;8.58;;;4.36;;
60641;SDS011;46837;52.446;-1.930;2023-12-07T05:06:07;8.40;;;3.64;;
60641;SDS011;46837;52.446;-1.930;2023-12-07T05:07:07;10.00;;;3.78;;
60641;SDS011;46837;52.446;-1.930;2023-12-07T05:08:07;13.68;;;5.06;;
60641;SDS011;46837;52.446;-1.930;2023-12-07T05:09:07;7.78;;;3.94;;
60641;SDS011;46837;52.446;-1.930;2023-12-07T05:10:07;11.26;;;4.54;;
60641;SDS011;46837;52.446;-1.930;2023-12-07T05:11:07;9.92;;;5.36;;
60641;SDS011;46837;52.446;-1.930;2023-12-07T05:12:07;10.86;;;4.32;;
60641;SDS011;46837;52.446;-1.930;2023-12-07T05:13:07;10.92;;;4.34;;
60641;SDS011;46837;52.446;-1.930;2023-12-07T05:14:07;11.10;;;4.48;;
60641;SDS011;46837;52.446;-1.930;2023-12-07T05:15:07;8.86;;;4.36;;
60641;SDS011;46837;52.446;-1.930;2023-12-07T05:16:08;11.14;;;4.60;;
60641;SDS011;46837;52.446;-1.930;2023-12-07T05:17:07;5.68;;;4.04;;
60641;SDS011;46837;52.446;-1.930;2023-12-07T05:18:07;20.32;;;4.56;;
60641;SDS011;46837;52.446;-1.930;2023-12-07T05:19:07;13.62;;;4.12;;
60641;SDS011;46837;52.446;-1.930;2023-12-07T05:20:07;13.64;;;5.04;;
60641;SDS011;46837;52.446;-1.930;2023-12-07T05:21:07;12.34;;;4.46;;
60641;SDS011;46837;52.446;-1.930;2023-12-07T05:22:07;9.48;;;4.46;;
60641;SDS011;46837;52.446;-1.930;2023-12-07T05:23:07;6.68;;;3.90;;
60641;SDS011;46837;52.446;-1.930;2023-12-07T05:24:07;11.76;;;4.54;;
60641;SDS011;46837;52.446;-1.930;2023-12-07T05:25:07;8.90;;;5.08;;
60641;SDS011;46837;52.446;-1.930;2023-12-07T05:26:07;11.22;;;4.74;;
60641;SDS011;46837;52.446;-1.930;2023-12-07T05:27:07;6.56;;;4.14;;
60641;SDS011;46837;52.446;-1.930;2023-12-07T05:28:07;9.22;;;4.46;;
60641;SDS011;46837;52.446;-1.930;2023-12-07T05:29:07;14.86;;;4.98;;
60641;SDS011;46837;52.446;-1.930;2023-12-07T05:30:07;8.40;;;4.94;;
60641;SDS011;46837;52.446;-1.930;2023-12-07T05:31:07;11.78;;;4.72;;
60641;SDS011;46837;52.446;-1.930;2023-12-07T05:32:07;8.30;;;4.94;;
60641;SDS011;46837;52.446;-1.930;2023-12-07T05:33:07;10.98;;;5.86;;
60641;SDS011;46837;52.446;-1.930;2023-12-07T05:34:07;18.88;;;4.64;;
60641;SDS011;46837;52.446;-1.930;2023-12-07T05:35:07;10.56;;;4.76;;
60641;SDS011;46837;52.446;-1.930;2023-12-07T05:36:07;9.88;;;4.78;;
60641;SDS011;46837;52.446;-1.930;2023-12-07T05:37:07;11.18;;;5.32;;
60641;SDS011;46837;52.446;-1.930;2023-12-07T05:38:07;11.70;;;5.06;;
60641;SDS011;46837;52.446;-1.930;2023-12-07T05:39:08;10.08;;;4.94;;
60641;SDS011;46837;52.446;-1.930;2023-12-07T05:40:07;8.00;;;5.34;;
60641;SDS011;46837;52.446;-1.930;2023-12-07T05:41:07;7.96;;;4.80;;
60641;SDS011;46837;52.446;-1.930;2023-12-07T05:42:07;14.64;;;5.58;;
60641;SDS011;46837;52.446;-1.930;2023-12-07T05:43:07;8.52;;;5.34;;
60641;SDS011;46837;52.446;-1.930;2023-12-07T05:44:07;10.60;;;5.30;;
60641;SDS011;46837;52.446;-1.930;2023-12-07T05:45:07;6.10;;;4.46;;
60641;SDS011;46837;52.446;-1.930;2023-12-07T05:46:07;11.18;;;4.74;;
60641;SDS011;46837;52.446;-1.930;2023-12-07T05:47:07;9.82;;;5.26;;
60641;SDS011;46837;52.446;-1.930;2023-12-07T05:48:07;7.12;;;5.36;;
60641;SDS011;46837;52.446;-1.930;2023-12-07T05:49:07;8.12;;;5.98;;
60641;SDS011;46837;52.446;-1.930;2023-12-07T05:50:07;13.06;;;5.72;;
60641;SDS011;46837;52.446;-1.930;2023-12-07T05:51:12;12.34;;;5.60;;
60641;SDS011;46837;52.446;-1.930;2023-12-07T05:52:07;13.34;;;5.12;;
60641;SDS011;46837;52.446;-1.930;2023-12-07T05:53:07;10.88;;;5.10;;